Time;durP1;ratioP1;P1;durP2;ratioP2;P2;SDS_P1;SDS_P2;PMS_P1;PMS_P2;Temp;Humidity;BMP_temperature;BMP_pressure;BME280_temperature;BME280_humidity;BME280_pressure;Samples;Min_cycle;Max_cycle;Signal;HPM_P1;HPM_P2
2022/05/04 00:01:53;;;;;;;12.25;3.08;;;;;;;;;;5020500;28;20041;-81
2022/05/04 00:04:20;;;;;;;14.90;3.05;;;;;;;;;;5013366;28;20494;-80
2022/05/04 00:06:46;;;;;;;11.95;2.30;;;;;;;;;;5012927;28;20025;-80
2022/05/04 00:09:12;;;;;;;12.32;2.78;;;;;;;;;;5028289;28;20437;-80
2022/05/04 00:11:40;;;;;;;10.40;2.60;;;;;;;;;;5013212;28;20013;-80
2022/05/04 00:14:06;;;;;;;13.18;2.95;;;;;;;;;;5013160;28;20026;-80
2022/05/04 00:16:32;;;;;;;13.27;3.22;;;;;;;;;;5028207;28;20029;-80
2022/05/04 00:18:58;;;;;;;11.85;2.80;;;;;;;;;;5013139;28;20104;-80
2022/05/04 00:21:24;;;;;;;13.48;2.60;;;;;;;;;;5013308;28;20037;-80
2022/05/04 00:23:50;;;;;;;9.38;2.90;;;;;;;;;;5012872;28;20037;-80
2022/05/04 00:26:16;;;;;;;13.63;3.25;;;;;;;;;;5012792;28;20026;-80
2022/05/04 00:28:42;;;;;;;10.38;2.40;;;;;;;;;;5012717;28;20076;-80
2022/05/04 00:31:08;;;;;;;23.27;2.85;;;;;;;;;;5024685;28;20029;-80
2022/05/04 00:33:34;;;;;;;12.52;2.70;;;;;;;;;;5032425;28;20029;-81
2022/05/04 00:36:00;;;;;;;15.30;3.88;;;;;;;;;;5047838;28;20021;-80
2022/05/04 00:38:26;;;;;;;13.05;2.70;;;;;;;;;;5032288;28;20068;-80
2022/05/04 00:40:52;;;;;;;16.70;2.92;;;;;;;;;;5032396;28;20068;-80
2022/05/04 00:43:23;;;;;;;9.85;2.50;;;;;;;;;;5032335;28;20530;-80
2022/05/04 00:45:49;;;;;;;10.32;2.88;;;;;;;;;;5047681;28;20018;-80
2022/05/04 00:48:15;;;;;;;14.25;2.88;;;;;;;;;;5032423;28;20018;-80
2022/05/04 00:50:41;;;;;;;8.35;3.67;;;;;;;;;;5034744;28;20029;-80
2022/05/04 00:53:07;;;;;;;11.38;2.95;;;;;;;;;;5036473;28;20033;-80
2022/05/04 00:55:34;;;;;;;13.27;2.92;;;;;;;;;;5036282;28;20034;-80
2022/05/04 01:00:48;;;;;;;10.18;3.13;;;;;;;;;;5033446;28;20041;-80
2022/05/04 01:03:14;;;;;;;11.43;2.80;;;;;;;;;;5016350;28;20024;-80
2022/05/04 01:05:40;;;;;;;12.90;3.60;;;;;;;;;;5031611;28;20483;-80
2022/05/04 01:08:07;;;;;;;13.10;3.55;;;;;;;;;;5016184;28;20029;-80
2022/05/04 01:10:33;;;;;;;12.88;3.20;;;;;;;;;;5016377;28;20042;-80
2022/05/04 01:12:59;;;;;;;14.02;3.20;;;;;;;;;;5016395;28;20033;-80
2022/05/04 01:15:25;;;;;;;16.20;3.20;;;;;;;;;;5016560;28;20043;-79
2022/05/04 01:17:51;;;;;;;15.00;2.95;;;;;;;;;;5020159;28;20555;-80
2022/05/04 01:20:17;;;;;;;13.18;3.42;;;;;;;;;;5015756;28;20057;-80
2022/05/04 01:22:43;;;;;;;14.27;3.53;;;;;;;;;;5015672;28;20052;-80
2022/05/04 01:25:11;;;;;;;13.25;3.20;;;;;;;;;;5015845;28;20025;-80
2022/05/04 01:27:37;;;;;;;10.38;3.50;;;;;;;;;;5015591;28;20033;-80
2022/05/04 01:30:04;;;;;;;12.85;3.50;;;;;;;;;;5015969;28;20036;-80
2022/05/04 01:32:30;;;;;;;12.13;3.35;;;;;;;;;;5016206;28;20022;-80
2022/05/04 01:34:56;;;;;;;15.55;3.63;;;;;;;;;;5015792;28;20037;-80
2022/05/04 01:37:22;;;;;;;9.85;2.83;;;;;;;;;;5016127;28;20084;-80
2022/05/04 01:39:48;;;;;;;14.13;3.58;;;;;;;;;;5015794;28;20034;-80
2022/05/04 01:42:15;;;;;;;13.35;3.30;;;;;;;;;;5015953;28;20045;-80
2022/05/04 01:44:42;;;;;;;13.07;3.88;;;;;;;;;;5015843;28;20028;-80
2022/05/04 01:47:08;;;;;;;15.25;3.25;;;;;;;;;;5015834;28;20034;-80
2022/05/04 01:49:35;;;;;;;11.23;3.20;;;;;;;;;;5030672;28;20072;-80
2022/05/04 01:52:01;;;;;;;12.38;3.55;;;;;;;;;;5014783;28;20030;-80
2022/05/04 01:54:27;;;;;;;14.13;3.33;;;;;;;;;;5047898;28;20032;-80
2022/05/04 01:56:53;;;;;;;19.27;4.20;;;;;;;;;;5033041;28;20049;-79
2022/05/04 01:59:19;;;;;;;17.48;3.60;;;;;;;;;;5034383;28;20048;-80
2022/05/04 02:01:45;;;;;;;17.45;4.10;;;;;;;;;;5033122;28;20494;-80
2022/05/04 02:04:12;;;;;;;13.63;4.63;;;;;;;;;;5034231;28;20029;-80
2022/05/04 02:06:38;;;;;;;17.70;4.10;;;;;;;;;;5033898;28;20104;-80
2022/05/04 02:09:06;;;;;;;14.00;3.75;;;;;;;;;;5034147;28;20037;-80
2022/05/04 02:11:32;;;;;;;11.45;3.83;;;;;;;;;;5034110;28;20040;-80
2022/05/04 02:14:01;;;;;;;9.75;3.90;;;;;;;;;;5034327;28;20060;-80
2022/05/04 02:16:28;;;;;;;12.77;3.88;;;;;;;;;;5035028;28;20472;-80
2022/05/04 02:18:54;;;;;;;14.70;3.53;;;;;;;;;;5034711;28;20049;-80
2022/05/04 02:21:21;;;;;;;20.48;4.97;;;;;;;;;;5034457;28;20118;-80
2022/05/04 02:23:47;;;;;;;16.52;3.58;;;;;;;;;;5033156;28;20097;-80
2022/05/04 02:26:13;;;;;;;13.43;3.70;;;;;;;;;;5034350;28;20025;-80
2022/05/04 02:28:39;;;;;;;12.00;4.13;;;;;;;;;;5034317;28;20028;-80
2022/05/04 02:31:05;;;;;;;13.43;3.92;;;;;;;;;;5032714;28;20025;-80
2022/05/04 02:33:31;;;;;;;16.92;3.50;;;;;;;;;;5034461;28;20399;-80
2022/05/04 02:38:42;;;;;;;11.57;3.70;;;;;;;;;;5034214;28;20037;-80
2022/05/04 02:41:08;;;;;;;12.02;4.28;;;;;;;;;;5034834;28;20021;-80
2022/05/04 02:43:34;;;;;;;11.52;3.75;;;;;;;;;;5034628;28;20396;-80
2022/05/04 02:46:12;;;;;;;11.23;3.92;;;;;;;;;;5034488;28;20464;-80
2022/05/04 02:48:38;;;;;;;10.68;3.58;;;;;;;;;;5034536;28;20030;-80
2022/05/04 02:51:04;;;;;;;10.93;3.88;;;;;;;;;;5049758;28;20049;-80
2022/05/04 02:53:30;;;;;;;13.07;3.72;;;;;;;;;;5034464;28;20415;-80
2022/05/04 02:55:56;;;;;;;13.73;3.65;;;;;;;;;;5034482;28;20388;-80
2022/05/04 02:58:22;;;;;;;16.85;3.63;;;;;;;;;;5034256;28;20049;-80
2022/05/04 03:00:48;;;;;;;18.00;3.60;;;;;;;;;;5030902;28;20030;-80
2022/05/04 03:03:14;;;;;;;16.48;3.53;;;;;;;;;;5013092;28;20477;-80
2022/05/04 03:05:40;;;;;;;10.18;3.20;;;;;;;;;;5014486;28;20468;-80
2022/05/04 03:08:07;;;;;;;16.70;3.70;;;;;;;;;;5014381;28;20042;-80
2022/05/04 03:11:54;;;;;;;12.48;3.58;;;;;;;;;;5012942;28;20109;-80
2022/05/04 03:13:19;;;;;;;10.85;3.90;;;;;;;;;;5014303;28;20509;-80
2022/05/04 03:15:45;;;;;;;20.48;3.53;;;;;;;;;;5012979;28;20381;-80
2022/05/04 03:18:11;;;;;;;11.48;3.58;;;;;;;;;;5012910;28;20036;-80
2022/05/04 03:20:38;;;;;;;15.00;3.72;;;;;;;;;;5013892;28;20054;-80
2022/05/04 03:23:04;;;;;;;15.02;3.60;;;;;;;;;;5013929;28;20101;-80
2022/05/04 03:25:30;;;;;;;14.98;3.63;;;;;;;;;;5013935;28;20034;-80
2022/05/04 03:27:56;;;;;;;11.80;3.72;;;;;;;;;;5013109;28;20026;-80
2022/05/04 03:30:22;;;;;;;15.60;4.35;;;;;;;;;;5013231;28;20014;-80
2022/05/04 03:32:48;;;;;;;16.98;3.83;;;;;;;;;;5013593;28;20022;-80
2022/05/04 03:35:14;;;;;;;21.17;4.03;;;;;;;;;;5013533;28;20380;-80
2022/05/04 03:37:40;;;;;;;13.80;3.78;;;;;;;;;;5013651;28;20429;-80
2022/05/04 03:40:07;;;;;;;14.63;3.50;;;;;;;;;;5013599;28;20052;-80
2022/05/04 03:42:33;;;;;;;11.98;4.28;;;;;;;;;;5013519;28;20336;-80
2022/05/04 03:44:59;;;;;;;16.88;4.20;;;;;;;;;;5013475;28;20111;-80
2022/05/04 03:47:25;;;;;;;12.52;3.53;;;;;;;;;;5013439;28;20041;-79
2022/05/04 03:49:51;;;;;;;17.95;3.60;;;;;;;;;;5012080;28;20021;-80
2022/05/04 03:52:17;;;;;;;17.33;4.00;;;;;;;;;;5013298;28;20018;-80
2022/05/04 03:54:44;;;;;;;15.27;3.45;;;;;;;;;;5031798;28;20124;-80
2022/05/04 03:57:10;;;;;;;18.10;3.75;;;;;;;;;;5032962;28;20029;-80
2022/05/04 03:59:36;;;;;;;15.68;3.63;;;;;;;;;;5033122;28;20087;-80
2022/05/04 04:02:02;;;;;;;13.70;3.45;;;;;;;;;;5019376;28;20033;-80
2022/05/04 04:04:28;;;;;;;20.13;4.18;;;;;;;;;;5011664;28;20361;-80
2022/05/04 04:06:54;;;;;;;12.90;3.97;;;;;;;;;;5011068;28;20044;-80
2022/05/04 04:09:21;;;;;;;13.82;3.97;;;;;;;;;;5012745;28;20109;-79
2022/05/04 04:11:47;;;;;;;9.60;4.03;;;;;;;;;;5012985;28;20172;-80
2022/05/04 04:14:13;;;;;;;13.60;4.00;;;;;;;;;;5013216;28;20415;-80
2022/05/04 04:16:39;;;;;;;21.52;5.60;;;;;;;;;;5029359;28;20495;-80
2022/05/04 04:19:05;;;;;;;21.10;4.68;;;;;;;;;;5023917;28;20484;-80
2022/05/04 04:24:15;;;;;;;16.20;4.63;;;;;;;;;;5014931;28;20037;-80
2022/05/04 04:26:41;;;;;;;13.73;4.07;;;;;;;;;;5019880;28;20021;-80
2022/05/04 04:29:07;;;;;;;14.55;4.30;;;;;;;;;;5026311;28;20064;-80
2022/05/04 04:31:33;;;;;;;18.90;4.43;;;;;;;;;;5017469;28;20411;-80
2022/05/04 04:34:01;;;;;;;18.45;4.32;;;;;;;;;;5021354;28;20021;-80
2022/05/04 04:36:28;;;;;;;16.48;4.53;;;;;;;;;;5012523;28;20021;-80
2022/05/04 04:38:54;;;;;;;16.35;4.53;;;;;;;;;;5012737;28;20090;-80
2022/05/04 04:41:20;;;;;;;15.90;4.15;;;;;;;;;;5012681;28;20014;-80
2022/05/04 04:43:46;;;;;;;17.52;3.83;;;;;;;;;;5012792;28;20104;-80
2022/05/04 04:46:12;;;;;;;18.55;4.15;;;;;;;;;;5011474;28;20057;-80
2022/05/04 04:48:38;;;;;;;17.13;4.85;;;;;;;;;;5012779;28;20373;-80
2022/05/04 04:51:04;;;;;;;16.05;4.40;;;;;;;;;;5012899;28;20060;-80
2022/05/04 04:53:31;;;;;;;13.75;4.47;;;;;;;;;;5012838;28;20022;-80
2022/05/04 04:55:57;;;;;;;20.80;4.20;;;;;;;;;;5012678;28;20026;-80
2022/05/04 04:58:25;;;;;;;13.75;4.32;;;;;;;;;;5012483;28;20428;-80
2022/05/04 05:00:51;;;;;;;14.57;3.72;;;;;;;;;;5012550;28;20384;-80
2022/05/04 05:03:17;;;;;;;18.50;3.80;;;;;;;;;;5012551;28;20030;-79
2022/05/04 05:05:44;;;;;;;13.90;4.07;;;;;;;;;;5012706;28;20108;-79
2022/05/04 05:08:11;;;;;;;13.80;4.00;;;;;;;;;;5012380;28;20054;-80
2022/05/04 05:10:37;;;;;;;15.27;4.82;;;;;;;;;;5012575;28;20257;-79
2022/05/04 05:13:03;;;;;;;13.07;4.00;;;;;;;;;;5012938;28;20068;-80
2022/05/04 05:18:15;;;;;;;21.08;4.57;;;;;;;;;;5012663;28;20169;-80
2022/05/04 05:20:41;;;;;;;14.35;3.72;;;;;;;;;;5012790;28;20045;-80
2022/05/04 05:23:07;;;;;;;15.07;4.28;;;;;;;;;;5012600;28;20025;-80
2022/05/04 05:25:33;;;;;;;13.15;3.70;;;;;;;;;;5012253;28;20022;-80
2022/05/04 05:27:59;;;;;;;15.18;3.75;;;;;;;;;;5012340;28;20025;-80
2022/05/04 05:30:25;;;;;;;13.50;4.60;;;;;;;;;;5012178;28;20017;-80
2022/05/04 05:32:51;;;;;;;13.38;4.03;;;;;;;;;;5012278;28;20034;-80
2022/05/04 05:35:17;;;;;;;13.82;3.10;;;;;;;;;;5012255;28;20045;-80
2022/05/04 05:37:43;;;;;;;13.65;3.47;;;;;;;;;;5015591;28;20033;-80
2022/05/04 05:40:10;;;;;;;10.18;3.22;;;;;;;;;;5031153;28;20025;-80
2022/05/04 05:42:36;;;;;;;14.75;3.60;;;;;;;;;;5015774;28;20030;-80
2022/05/04 05:45:02;;;;;;;15.05;3.00;;;;;;;;;;5031136;28;20700;-80
2022/05/04 05:47:28;;;;;;;14.23;3.33;;;;;;;;;;5015539;28;20480;-79
2022/05/04 05:49:54;;;;;;;13.25;2.60;;;;;;;;;;5015438;28;20057;-80
2022/05/04 05:52:20;;;;;;;13.27;3.25;;;;;;;;;;5015532;28;20105;-80
2022/05/04 05:54:46;;;;;;;8.43;2.88;;;;;;;;;;5016030;28;20026;-80
2022/05/04 05:57:12;;;;;;;14.82;3.67;;;;;;;;;;5030089;28;20038;-80
2022/05/04 05:59:38;;;;;;;15.65;3.50;;;;;;;;;;5034293;28;20077;-80
2022/05/04 06:02:05;;;;;;;10.07;3.00;;;;;;;;;;5015804;28;20377;-80
2022/05/04 06:04:31;;;;;;;12.48;2.83;;;;;;;;;;5017708;28;20536;-80
2022/05/04 06:06:57;;;;;;;10.07;2.45;;;;;;;;;;5034578;28;20029;-81
2022/05/04 06:09:23;;;;;;;12.43;2.85;;;;;;;;;;5034435;28;20439;-80
2022/05/04 06:11:51;;;;;;;15.45;2.65;;;;;;;;;;5034107;28;20476;-81
2022/05/04 06:14:17;;;;;;;15.30;2.78;;;;;;;;;;5034543;28;20017;-80
2022/05/04 06:16:43;;;;;;;12.00;2.38;;;;;;;;;;5034181;28;20040;-80
2022/05/04 06:19:09;;;;;;;10.48;2.67;;;;;;;;;;5033976;28;20029;-80
2022/05/04 06:21:35;;;;;;;14.98;2.40;;;;;;;;;;5034961;28;20026;-80
2022/05/04 06:24:01;;;;;;;9.25;2.50;;;;;;;;;;5032972;28;20491;-81
2022/05/04 06:26:27;;;;;;;13.90;2.92;;;;;;;;;;5033803;28;20033;-80
2022/05/04 06:28:53;;;;;;;12.57;2.60;;;;;;;;;;5026919;28;20476;-80
2022/05/04 06:34:07;;;;;;;9.25;2.58;;;;;;;;;;5029983;28;20048;-81
2022/05/04 06:36:33;;;;;;;10.65;2.17;;;;;;;;;;5021118;28;20018;-81
2022/05/04 06:38:59;;;;;;;15.40;2.13;;;;;;;;;;5027925;28;20021;-81
2022/05/04 06:41:25;;;;;;;7.05;1.55;;;;;;;;;;5022346;28;20022;-81
2022/05/04 06:43:51;;;;;;;12.23;2.00;;;;;;;;;;5024201;28;20063;-81
2022/05/04 06:46:17;;;;;;;8.52;2.08;;;;;;;;;;5020558;28;20022;-81
2022/05/04 06:48:45;;;;;;;8.02;2.30;;;;;;;;;;5034392;28;20053;-81
2022/05/04 06:51:11;;;;;;;13.93;2.90;;;;;;;;;;5027857;28;20061;-81
2022/05/04 06:53:37;;;;;;;14.93;2.45;;;;;;;;;;5023395;28;20037;-80
2022/05/04 06:56:03;;;;;;;8.95;2.58;;;;;;;;;;5021594;28;20044;-79
2022/05/04 06:58:29;;;;;;;14.10;2.65;;;;;;;;;;5025271;28;20049;-80
2022/05/04 07:00:56;;;;;;;9.70;2.10;;;;;;;;;;5023541;28;20452;-80
2022/05/04 07:03:22;;;;;;;10.18;2.80;;;;;;;;;;5027972;28;20033;-79
2022/05/04 07:05:51;;;;;;;9.57;2.03;;;;;;;;;;5024683;28;20805;-78
2022/05/04 07:08:18;;;;;;;9.25;2.10;;;;;;;;;;5026095;28;20407;-80
2022/05/04 07:10:44;;;;;;;14.05;2.47;;;;;;;;;;5022004;28;20021;-80
2022/05/04 07:13:10;;;;;;;15.10;2.67;;;;;;;;;;5024364;28;20032;-80
2022/05/04 07:15:36;;;;;;;10.00;2.03;;;;;;;;;;5023730;28;20032;-80
2022/05/04 07:18:04;;;;;;;11.75;2.05;;;;;;;;;;5023145;28;20048;-80
2022/05/04 07:20:30;;;;;;;7.93;2.17;;;;;;;;;;5022352;28;20053;-80
2022/05/04 07:22:56;;;;;;;10.95;2.13;;;;;;;;;;5022127;28;20026;-81
2022/05/04 07:25:22;;;;;;;9.70;2.10;;;;;;;;;;5021524;28;20026;-80
2022/05/04 07:27:48;;;;;;;8.80;2.22;;;;;;;;;;5023466;28;20108;-80
2022/05/04 07:30:14;;;;;;;6.60;1.95;;;;;;;;;;5023138;28;20357;-81
2022/05/04 07:32:40;;;;;;;11.85;2.40;;;;;;;;;;5027612;28;20159;-80
2022/05/04 07:35:08;;;;;;;5.68;1.98;;;;;;;;;;5033168;28;20072;-78
2022/05/04 07:37:34;;;;;;;10.20;2.58;;;;;;;;;;5032201;28;20434;-81
2022/05/04 07:42:44;;;;;;;7.57;2.40;;;;;;;;;;5033010;28;20060;-78
2022/05/04 07:45:12;;;;;;;11.55;2.60;;;;;;;;;;5029098;28;20029;-78
2022/05/04 07:47:38;;;;;;;9.73;2.95;;;;;;;;;;5032360;28;20029;-78
2022/05/04 07:50:05;;;;;;;6.82;2.08;;;;;;;;;;5031427;28;20028;-82
2022/05/04 07:52:32;;;;;;;7.00;2.20;;;;;;;;;;5031391;28;20037;-78
2022/05/04 07:54:58;;;;;;;7.25;2.65;;;;;;;;;;5032102;28;20040;-78
2022/05/04 07:57:24;;;;;;;7.78;2.80;;;;;;;;;;5029482;28;20029;-79
2022/05/04 08:05:24;;;;;;;9.18;3.08;;;;;;;;;;5032758;28;20364;-77
2022/05/04 08:07:50;;;;;;;10.57;2.95;;;;;;;;;;5032427;28;20674;-77
2022/05/04 08:10:16;;;;;;;9.18;2.72;;;;;;;;;;5032240;28;20030;-77
2022/05/04 08:12:42;;;;;;;10.85;3.20;;;;;;;;;;5032614;28;20053;-77
2022/05/04 08:15:09;;;;;;;7.05;2.80;;;;;;;;;;5031312;28;20026;-77
2022/05/04 08:17:35;;;;;;;11.23;3.42;;;;;;;;;;5032758;28;20033;-77
2022/05/04 08:20:01;;;;;;;7.57;2.85;;;;;;;;;;5032088;28;20027;-77
2022/05/04 08:22:27;;;;;;;10.43;3.55;;;;;;;;;;5032632;28;20083;-77
2022/05/04 08:24:54;;;;;;;10.32;3.03;;;;;;;;;;5032509;28;20043;-77
2022/05/04 08:27:20;;;;;;;13.32;3.50;;;;;;;;;;5032353;28;20029;-77
2022/05/04 08:29:46;;;;;;;10.13;3.13;;;;;;;;;;5030893;28;20090;-78
2022/05/04 08:32:13;;;;;;;8.15;3.03;;;;;;;;;;5032792;28;20021;-80
2022/05/04 08:34:39;;;;;;;8.57;3.58;;;;;;;;;;5030764;28;20423;-78
2022/05/04 08:37:05;;;;;;;7.13;3.20;;;;;;;;;;5020727;28;20108;-77
2022/05/04 08:39:31;;;;;;;11.00;3.70;;;;;;;;;;5029603;28;20099;-77
2022/05/04 08:41:59;;;;;;;8.07;3.15;;;;;;;;;;5015296;28;20030;-80
2022/05/04 08:44:25;;;;;;;8.23;3.13;;;;;;;;;;5015449;28;20018;-82
2022/05/04 08:46:51;;;;;;;9.95;3.92;;;;;;;;;;5013064;28;20420;-81
2022/05/04 08:49:19;;;;;;;10.27;3.08;;;;;;;;;;5016134;28;20018;-82
2022/05/04 08:51:48;;;;;;;8.07;3.47;;;;;;;;;;5011707;28;20072;-80
2022/05/04 08:54:15;;;;;;;10.15;3.47;;;;;;;;;;5018003;28;20384;-79
2022/05/04 08:56:41;;;;;;;13.80;4.00;;;;;;;;;;5021240;28;20030;-81
2022/05/04 08:59:08;;;;;;;10.13;3.42;;;;;;;;;;5020874;28;20480;-79
2022/05/04 09:01:34;;;;;;;8.15;3.05;;;;;;;;;;5022955;28;20506;-78
2022/05/04 09:04:00;;;;;;;6.82;3.42;;;;;;;;;;5020052;28;20022;-78
2022/05/04 09:06:31;;;;;;;10.65;3.40;;;;;;;;;;5026008;28;20072;-78
2022/05/04 09:08:57;;;;;;;12.63;3.30;;;;;;;;;;5020666;28;20375;-78
2022/05/04 09:11:24;;;;;;;11.65;3.65;;;;;;;;;;5020609;28;20460;-82
2022/05/04 09:13:50;;;;;;;12.65;3.80;;;;;;;;;;5031358;28;20523;-81
2022/05/04 09:16:31;;;;;;;12.57;4.07;;;;;;;;;;5025986;28;20033;-80
2022/05/04 09:19:00;;;;;;;13.60;3.97;;;;;;;;;;5028591;28;20515;-81
2022/05/04 09:21:26;;;;;;;8.35;3.55;;;;;;;;;;5035032;28;20027;-82
2022/05/04 09:23:53;;;;;;;14.18;3.97;;;;;;;;;;5023528;28;20475;-81
2022/05/04 09:26:20;;;;;;;12.70;4.15;;;;;;;;;;5033375;28;20116;-80
2022/05/04 09:28:50;;;;;;;9.57;3.55;;;;;;;;;;5016054;28;20025;-78
2022/05/04 09:31:18;;;;;;;14.10;3.95;;;;;;;;;;5015462;28;20026;-77
2022/05/04 09:33:52;;;;;;;11.38;4.30;;;;;;;;;;5015506;28;20065;-76
2022/05/04 09:36:29;;;;;;;12.20;4.72;;;;;;;;;;5015024;28;20022;-77
2022/05/04 09:47:20;;;;;;;11.82;4.90;;;;;;;;;;5015821;28;20044;-80
2022/05/04 09:49:48;;;;;;;10.48;4.18;;;;;;;;;;5015763;28;20097;-79
2022/05/04 09:52:15;;;;;;;9.95;4.40;;;;;;;;;;5014907;28;20476;-75
2022/05/04 09:54:41;;;;;;;14.10;4.40;;;;;;;;;;5015171;28;20030;-75
2022/05/04 09:57:07;;;;;;;10.77;4.50;;;;;;;;;;5014831;28;20404;-76
2022/05/04 09:59:34;;;;;;;21.60;5.97;;;;;;;;;;5015513;28;20045;-81
2022/05/04 10:02:03;;;;;;;12.20;4.82;;;;;;;;;;5023412;28;20022;-75
2022/05/04 10:04:32;;;;;;;16.65;4.95;;;;;;;;;;5022953;28;20017;-77
2022/05/04 10:07:00;;;;;;;10.25;5.00;;;;;;;;;;5027956;28;20105;-78
2022/05/04 10:09:27;;;;;;;13.75;5.00;;;;;;;;;;5034545;28;20348;-75
2022/05/04 10:11:57;;;;;;;10.52;5.18;;;;;;;;;;5032720;28;20509;-76
2022/05/04 10:14:23;;;;;;;11.68;4.82;;;;;;;;;;5035193;28;20013;-82
2022/05/04 10:16:50;;;;;;;11.38;5.00;;;;;;;;;;5035304;28;20079;-81
2022/05/04 10:19:19;;;;;;;14.20;5.63;;;;;;;;;;5035659;28;20105;-81
2022/05/04 10:21:49;;;;;;;12.18;4.38;;;;;;;;;;5034411;28;20033;-79
2022/05/04 10:24:17;;;;;;;12.60;4.85;;;;;;;;;;5031074;28;20546;-76
2022/05/04 10:26:45;;;;;;;9.65;4.68;;;;;;;;;;5033976;28;20034;-77
2022/05/04 10:32:28;;;;;;;10.98;4.30;;;;;;;;;;5015089;28;20072;-82
2022/05/04 10:35:13;;;;;;;11.20;4.88;;;;;;;;;;5015066;28;20480;-83
2022/05/04 10:37:57;;;;;;;12.23;4.80;;;;;;;;;;5030520;28;20363;-82
2022/05/04 10:40:24;;;;;;;10.85;4.80;;;;;;;;;;5015070;28;20041;-83
2022/05/04 10:42:55;;;;;;;10.30;4.50;;;;;;;;;;5015513;28;20034;-83
2022/05/04 10:45:23;;;;;;;13.50;4.45;;;;;;;;;;5030214;28;20036;-83
2022/05/04 10:47:49;;;;;;;10.95;4.32;;;;;;;;;;5014913;28;20025;-84
2022/05/04 10:50:19;;;;;;;13.43;5.05;;;;;;;;;;5015037;28;20487;-85
2022/05/04 10:52:48;;;;;;;18.17;5.20;;;;;;;;;;5015424;28;20109;-84
2022/05/04 10:55:14;;;;;;;12.80;4.88;;;;;;;;;;5014581;28;20030;-79
2022/05/04 10:57:43;;;;;;;12.38;4.97;;;;;;;;;;5014258;28;20350;-79
2022/05/04 11:00:10;;;;;;;12.07;4.20;;;;;;;;;;5014189;28;20026;-80
2022/05/04 11:02:42;;;;;;;8.60;4.78;;;;;;;;;;5032713;28;20436;-79
2022/05/04 11:05:12;;;;;;;12.18;5.55;;;;;;;;;;5034456;28;20037;-80
2022/05/04 11:07:38;;;;;;;10.63;4.63;;;;;;;;;;5034125;28;20080;-79
2022/05/04 11:10:05;;;;;;;11.40;4.82;;;;;;;;;;5034165;28;20049;-79
2022/05/04 11:12:31;;;;;;;12.45;5.07;;;;;;;;;;5033973;28;20068;-79
2022/05/04 11:14:57;;;;;;;11.57;5.28;;;;;;;;;;5032470;28;20029;-79
2022/05/04 11:17:23;;;;;;;11.93;5.05;;;;;;;;;;5034192;28;20061;-79
2022/05/04 11:19:50;;;;;;;15.98;5.28;;;;;;;;;;5034139;28;20064;-79
2022/05/04 11:22:16;;;;;;;9.32;4.65;;;;;;;;;;5032132;28;20513;-80
2022/05/04 11:24:43;;;;;;;18.00;5.72;;;;;;;;;;5033329;28;20025;-79
2022/05/04 11:27:11;;;;;;;13.45;5.57;;;;;;;;;;5033339;28;20022;-78
2022/05/04 11:29:38;;;;;;;14.18;5.00;;;;;;;;;;5033360;28;20025;-78
2022/05/04 11:32:05;;;;;;;14.00;4.80;;;;;;;;;;5032881;28;20104;-78
2022/05/04 11:34:33;;;;;;;12.55;5.25;;;;;;;;;;5029834;28;20018;-78
2022/05/04 11:37:03;;;;;;;8.88;4.85;;;;;;;;;;5032212;28;20040;-76
2022/05/04 11:39:30;;;;;;;11.68;4.60;;;;;;;;;;5030583;28;20034;-77
2022/05/04 11:41:59;;;;;;;12.75;4.78;;;;;;;;;;5031278;28;20030;-75
2022/05/04 11:44:26;;;;;;;8.85;4.75;;;;;;;;;;5031415;28;20056;-73
2022/05/04 11:46:53;;;;;;;10.48;4.57;;;;;;;;;;5030951;28;20025;-73
2022/05/04 11:49:24;;;;;;;8.88;4.70;;;;;;;;;;5031221;28;20025;-75
2022/05/04 11:51:53;;;;;;;14.52;5.00;;;;;;;;;;5032159;28;20045;-75
2022/05/04 11:54:20;;;;;;;12.02;5.85;;;;;;;;;;5030472;28;20120;-74
2022/05/04 11:56:46;;;;;;;10.57;4.90;;;;;;;;;;5031015;28;20368;-75
2022/05/04 11:59:13;;;;;;;12.95;5.00;;;;;;;;;;5030537;28;20049;-75
2022/05/04 12:01:40;;;;;;;13.95;5.15;;;;;;;;;;5027954;28;20117;-75
2022/05/04 12:04:07;;;;;;;10.85;4.43;;;;;;;;;;5027661;28;20054;-76
2022/05/04 12:06:34;;;;;;;9.93;4.65;;;;;;;;;;5027296;28;20030;-73
2022/05/04 12:09:01;;;;;;;17.13;4.70;;;;;;;;;;5027422;28;20419;-73
2022/05/04 12:11:28;;;;;;;10.52;5.20;;;;;;;;;;5039777;28;20025;-73
2022/05/04 12:13:56;;;;;;;11.90;4.90;;;;;;;;;;5030593;28;20037;-73
2022/05/04 12:16:23;;;;;;;12.48;4.93;;;;;;;;;;5030539;28;20029;-75
2022/05/04 12:18:50;;;;;;;13.38;5.75;;;;;;;;;;5030800;28;20021;-75
2022/05/04 12:21:19;;;;;;;13.88;5.55;;;;;;;;;;5030568;28;20029;-73
2022/05/04 12:23:47;;;;;;;11.88;4.93;;;;;;;;;;5030583;28;20032;-71
2022/05/04 12:26:13;;;;;;;14.27;5.47;;;;;;;;;;5016094;28;20112;-77
2022/05/04 12:28:40;;;;;;;17.80;5.70;;;;;;;;;;5010761;28;20029;-70
2022/05/04 12:33:54;;;;;;;13.40;5.68;;;;;;;;;;5023156;28;20556;-74
2022/05/04 12:36:20;;;;;;;13.57;5.35;;;;;;;;;;5019356;28;20022;-76
2022/05/04 12:38:49;;;;;;;16.23;6.97;;;;;;;;;;5029311;28;20029;-73
2022/05/04 12:41:17;;;;;;;17.67;6.15;;;;;;;;;;5022160;28;20028;-74
2022/05/04 12:43:43;;;;;;;14.25;5.32;;;;;;;;;;5020509;28;20034;-74
2022/05/04 12:46:11;;;;;;;11.38;5.35;;;;;;;;;;5021334;28;20084;-74
2022/05/04 12:48:41;;;;;;;14.63;5.90;;;;;;;;;;5023599;28;20030;-71
2022/05/04 12:51:07;;;;;;;15.90;6.00;;;;;;;;;;5024362;28;20493;-74
2022/05/04 12:53:34;;;;;;;14.18;5.10;;;;;;;;;;5025484;28;20032;-74
2022/05/04 12:58:46;;;;;;;14.38;6.15;;;;;;;;;;5026131;28;20049;-74
2022/05/04 13:01:13;;;;;;;12.68;5.68;;;;;;;;;;5023314;28;20101;-74
2022/05/04 13:03:39;;;;;;;12.15;5.60;;;;;;;;;;5024778;28;20056;-76
2022/05/04 13:06:07;;;;;;;15.55;5.53;;;;;;;;;;5016806;28;20096;-76
2022/05/04 13:08:34;;;;;;;14.68;5.13;;;;;;;;;;5014881;28;20112;-77
2022/05/04 13:11:00;;;;;;;19.40;5.65;;;;;;;;;;5022041;28;20025;-77
2022/05/04 13:13:26;;;;;;;11.57;5.05;;;;;;;;;;5034682;28;20028;-78
2022/05/04 13:15:52;;;;;;;12.50;5.13;;;;;;;;;;5034189;28;20029;-76
2022/05/04 13:18:22;;;;;;;11.52;4.55;;;;;;;;;;5033912;28;20033;-75
2022/05/04 13:20:49;;;;;;;12.27;6.18;;;;;;;;;;5034047;28;20021;-78
2022/05/04 13:23:16;;;;;;;12.48;6.05;;;;;;;;;;5036578;28;20084;-79
2022/05/04 13:25:42;;;;;;;10.82;5.45;;;;;;;;;;5036464;28;20460;-79
2022/05/04 13:28:08;;;;;;;16.35;5.45;;;;;;;;;;5034097;28;20399;-79
2022/05/04 13:30:34;;;;;;;14.25;5.22;;;;;;;;;;5035475;28;20101;-79
2022/05/04 13:33:01;;;;;;;17.50;5.95;;;;;;;;;;5035868;28;20021;-79
2022/05/04 13:35:28;;;;;;;8.98;5.63;;;;;;;;;;5034960;28;20018;-76
2022/05/04 13:37:54;;;;;;;12.85;5.72;;;;;;;;;;5025680;28;20025;-77
2022/05/04 13:40:20;;;;;;;10.75;4.85;;;;;;;;;;5022842;28;20116;-77
2022/05/04 13:42:49;;;;;;;12.73;5.20;;;;;;;;;;5022897;28;20021;-77
2022/05/04 13:45:15;;;;;;;13.48;5.88;;;;;;;;;;5025194;28;20475;-78
2022/05/04 13:47:42;;;;;;;11.35;5.28;;;;;;;;;;5023644;28;20029;-77
2022/05/04 13:55:39;;;;;;;11.02;5.13;;;;;;;;;;5023182;28;20028;-75
2022/05/04 13:58:05;;;;;;;11.93;5.05;;;;;;;;;;5029924;28;20022;-77
2022/05/04 14:00:31;;;;;;;11.18;5.07;;;;;;;;;;5033936;28;20140;-76
2022/05/04 14:02:57;;;;;;;12.73;5.43;;;;;;;;;;5034405;28;20410;-77
2022/05/04 14:05:23;;;;;;;12.50;5.50;;;;;;;;;;5049322;28;20029;-76
2022/05/04 14:07:49;;;;;;;15.55;6.05;;;;;;;;;;5034166;28;20393;-76
2022/05/04 14:10:15;;;;;;;10.85;5.40;;;;;;;;;;5034265;28;20066;-76
2022/05/04 14:12:41;;;;;;;13.43;5.60;;;;;;;;;;5034067;28;20025;-76
2022/05/04 14:15:09;;;;;;;15.57;5.47;;;;;;;;;;5032711;28;20034;-77
2022/05/04 14:17:35;;;;;;;25.67;6.22;;;;;;;;;;5034057;28;20032;-78
2022/05/04 14:20:01;;;;;;;14.50;5.68;;;;;;;;;;5032538;28;20037;-78
2022/05/04 14:22:27;;;;;;;12.07;5.55;;;;;;;;;;5033220;28;20053;-85
2022/05/04 14:24:53;;;;;;;9.23;4.90;;;;;;;;;;5033316;28;20083;-86
2022/05/04 14:27:19;;;;;;;13.75;5.35;;;;;;;;;;5033525;28;20033;-85
2022/05/04 14:29:45;;;;;;;18.73;5.75;;;;;;;;;;5033349;28;20325;-85
2022/05/04 14:32:11;;;;;;;14.00;6.22;;;;;;;;;;5029096;28;20028;-80
2022/05/04 14:34:37;;;;;;;9.95;5.38;;;;;;;;;;5025552;28;20036;-77
2022/05/04 14:37:04;;;;;;;13.27;5.53;;;;;;;;;;5022287;28;20079;-77
2022/05/04 14:39:30;;;;;;;15.57;5.90;;;;;;;;;;5019921;28;20113;-77
2022/05/04 14:41:56;;;;;;;12.75;5.72;;;;;;;;;;5020387;28;20362;-77
2022/05/04 14:44:23;;;;;;;14.73;5.45;;;;;;;;;;5022718;28;20022;-77
2022/05/04 14:46:49;;;;;;;12.73;5.25;;;;;;;;;;5023102;28;20181;-77
2022/05/04 14:49:15;;;;;;;12.13;6.45;;;;;;;;;;5023691;28;20047;-78
2022/05/04 14:51:42;;;;;;;14.57;5.40;;;;;;;;;;5023061;28;20021;-78
2022/05/04 14:54:08;;;;;;;14.02;5.63;;;;;;;;;;5021884;28;20019;-77
2022/05/04 14:56:34;;;;;;;11.77;5.80;;;;;;;;;;5018926;28;20042;-76
2022/05/04 14:59:00;;;;;;;13.55;6.22;;;;;;;;;;5022758;28;20050;-76
2022/05/04 15:01:27;;;;;;;12.73;5.53;;;;;;;;;;5024349;28;20014;-76
2022/05/04 15:06:38;;;;;;;16.52;6.68;;;;;;;;;;5024167;28;20033;-73
2022/05/04 15:09:04;;;;;;;11.65;5.78;;;;;;;;;;5020301;28;20125;-75
2022/05/04 15:11:30;;;;;;;10.35;5.85;;;;;;;;;;5023355;28;20087;-75
2022/05/04 15:13:56;;;;;;;15.63;6.25;;;;;;;;;;5022389;28;20029;-75
2022/05/04 15:16:24;;;;;;;14.40;5.40;;;;;;;;;;5023836;28;20097;-76